sensor_id;sensor_type;location;lat;lon;timestamp;P1;durP1;ratioP1;P2;durP2;ratioP2
72864;SDS011;61000;48.120;11.548;2022-08-02T00:00:53;1.50;;;1.40;;
72864;SDS011;61000;48.120;11.548;2022-08-02T00:03:20;1.50;;;1.40;;
72864;SDS011;61000;48.120;11.548;2022-08-02T00:05:47;1.60;;;1.40;;
72864;SDS011;61000;48.120;11.548;2022-08-02T00:08:15;1.40;;;1.30;;
72864;SDS011;61000;48.120;11.548;2022-08-02T00:10:42;2.35;;;1.50;;
72864;SDS011;61000;48.120;11.548;2022-08-02T00:13:09;1.83;;;1.70;;
72864;SDS011;61000;48.120;11.548;2022-08-02T00:15:36;1.95;;;1.65;;
72864;SDS011;61000;48.120;11.548;2022-08-02T00:18:03;1.80;;;1.58;;
72864;SDS011;61000;48.120;11.548;2022-08-02T00:20:30;2.80;;;1.48;;
72864;SDS011;61000;48.120;11.548;2022-08-02T00:22:57;1.50;;;1.40;;
72864;SDS011;61000;48.120;11.548;2022-08-02T00:25:25;1.40;;;1.30;;
72864;SDS011;61000;48.120;11.548;2022-08-02T00:27:52;3.63;;;1.48;;
72864;SDS011;61000;48.120;11.548;2022-08-02T00:30:19;1.52;;;1.42;;
72864;SDS011;61000;48.120;11.548;2022-08-02T00:32:45;2.05;;;1.80;;
72864;SDS011;61000;48.120;11.548;2022-08-02T00:35:12;2.17;;;1.75;;
72864;SDS011;61000;48.120;11.548;2022-08-02T00:37:39;2.28;;;1.48;;
72864;SDS011;61000;48.120;11.548;2022-08-02T00:40:07;2.55;;;1.73;;
72864;SDS011;61000;48.120;11.548;2022-08-02T00:42:37;2.25;;;1.60;;
72864;SDS011;61000;48.120;11.548;2022-08-02T00:45:04;1.50;;;1.40;;
72864;SDS011;61000;48.120;11.548;2022-08-02T00:47:32;1.65;;;1.55;;
72864;SDS011;61000;48.120;11.548;2022-08-02T00:49:58;1.95;;;1.40;;
72864;SDS011;61000;48.120;11.548;2022-08-02T00:52:25;1.95;;;1.40;;
72864;SDS011;61000;48.120;11.548;2022-08-02T00:54:52;1.55;;;1.45;;
72864;SDS011;61000;48.120;11.548;2022-08-02T00:57:19;2.28;;;1.48;;
72864;SDS011;61000;48.120;11.548;2022-08-02T00:59:47;1.60;;;1.50;;
72864;SDS011;61000;48.120;11.548;2022-08-02T01:02:14;1.75;;;1.58;;
72864;SDS011;61000;48.120;11.548;2022-08-02T01:04:41;1.90;;;1.40;;
72864;SDS011;61000;48.120;11.548;2022-08-02T01:07:08;2.55;;;2.35;;
72864;SDS011;61000;48.120;11.548;2022-08-02T01:09:35;1.45;;;1.35;;
72864;SDS011;61000;48.120;11.548;2022-08-02T01:12:02;2.33;;;1.90;;
72864;SDS011;61000;48.120;11.548;2022-08-02T01:14:29;1.40;;;1.30;;
72864;SDS011;61000;48.120;11.548;2022-08-02T01:16:59;3.15;;;1.80;;
72864;SDS011;61000;48.120;11.548;2022-08-02T01:19:32;1.65;;;1.55;;
72864;SDS011;61000;48.120;11.548;2022-08-02T01:22:06;1.70;;;1.60;;
72864;SDS011;61000;48.120;11.548;2022-08-02T01:25:03;1.63;;;1.52;;
72864;SDS011;61000;48.120;11.548;2022-08-02T01:27:42;2.50;;;1.60;;
72864;SDS011;61000;48.120;11.548;2022-08-02T01:30:19;1.92;;;1.63;;
72864;SDS011;61000;48.120;11.548;2022-08-02T01:32:48;2.03;;;1.60;;
72864;SDS011;61000;48.120;11.548;2022-08-02T01:35:19;2.17;;;1.77;;
72864;SDS011;61000;48.120;11.548;2022-08-02T01:37:50;3.63;;;1.88;;
72864;SDS011;61000;48.120;11.548;2022-08-02T01:40:22;2.30;;;1.65;;
72864;SDS011;61000;48.120;11.548;2022-08-02T01:42:54;1.80;;;1.70;;
72864;SDS011;61000;48.120;11.548;2022-08-02T01:45:25;1.90;;;1.70;;
72864;SDS011;61000;48.120;11.548;2022-08-02T01:47:55;2.88;;;1.98;;
72864;SDS011;61000;48.120;11.548;2022-08-02T01:50:25;2.75;;;1.70;;
72864;SDS011;61000;48.120;11.548;2022-08-02T01:52:56;2.25;;;1.77;;
72864;SDS011;61000;48.120;11.548;2022-08-02T01:55:27;1.77;;;1.67;;
72864;SDS011;61000;48.120;11.548;2022-08-02T01:57:57;2.75;;;1.92;;
72864;SDS011;61000;48.120;11.548;2022-08-02T02:00:28;2.00;;;1.80;;
72864;SDS011;61000;48.120;11.548;2022-08-02T02:02:58;5.15;;;1.90;;
72864;SDS011;61000;48.120;11.548;2022-08-02T02:05:26;2.20;;;2.00;;
72864;SDS011;61000;48.120;11.548;2022-08-02T02:07:56;1.73;;;1.60;;
72864;SDS011;61000;48.120;11.548;2022-08-02T02:10:25;2.08;;;1.65;;
72864;SDS011;61000;48.120;11.548;2022-08-02T02:12:54;3.10;;;2.03;;
72864;SDS011;61000;48.120;11.548;2022-08-02T02:15:23;2.45;;;2.17;;
72864;SDS011;61000;48.120;11.548;2022-08-02T02:17:52;2.40;;;1.85;;
72864;SDS011;61000;48.120;11.548;2022-08-02T02:20:21;2.40;;;2.20;;
72864;SDS011;61000;48.120;11.548;2022-08-02T02:22:49;2.38;;;2.10;;
72864;SDS011;61000;48.120;11.548;2022-08-02T02:25:19;1.98;;;1.80;;
72864;SDS011;61000;48.120;11.548;2022-08-02T02:27:53;3.00;;;2.00;;
72864;SDS011;61000;48.120;11.548;2022-08-02T02:30:24;4.07;;;2.25;;
72864;SDS011;61000;48.120;11.548;2022-08-02T02:32:56;2.28;;;2.05;;
72864;SDS011;61000;48.120;11.548;2022-08-02T02:35:26;2.33;;;2.13;;
72864;SDS011;61000;48.120;11.548;2022-08-02T02:37:57;3.38;;;2.35;;
72864;SDS011;61000;48.120;11.548;2022-08-02T02:40:28;2.10;;;1.90;;
72864;SDS011;61000;48.120;11.548;2022-08-02T02:42:57;2.83;;;2.10;;
72864;SDS011;61000;48.120;11.548;2022-08-02T02:45:26;3.50;;;1.90;;
72864;SDS011;61000;48.120;11.548;2022-08-02T02:47:56;2.22;;;2.03;;
72864;SDS011;61000;48.120;11.548;2022-08-02T02:50:25;2.70;;;2.35;;
72864;SDS011;61000;48.120;11.548;2022-08-02T02:52:53;3.33;;;2.20;;
72864;SDS011;61000;48.120;11.548;2022-08-02T02:55:21;3.42;;;2.17;;
72864;SDS011;61000;48.120;11.548;2022-08-02T02:57:49;3.30;;;2.15;;
72864;SDS011;61000;48.120;11.548;2022-08-02T03:00:16;3.33;;;2.47;;
72864;SDS011;61000;48.120;11.548;2022-08-02T03:03:05;2.97;;;2.30;;
72864;SDS011;61000;48.120;11.548;2022-08-02T03:05:32;2.20;;;2.03;;
72864;SDS011;61000;48.120;11.548;2022-08-02T03:07:59;2.40;;;2.20;;
72864;SDS011;61000;48.120;11.548;2022-08-02T03:10:26;2.97;;;2.35;;
72864;SDS011;61000;48.120;11.548;2022-08-02T03:12:53;3.53;;;2.15;;
72864;SDS011;61000;48.120;11.548;2022-08-02T03:15:22;2.40;;;2.20;;
72864;SDS011;61000;48.120;11.548;2022-08-02T03:17:52;4.75;;;2.38;;
72864;SDS011;61000;48.120;11.548;2022-08-02T03:20:20;2.58;;;2.20;;
72864;SDS011;61000;48.120;11.548;2022-08-02T03:22:48;2.30;;;2.10;;
72864;SDS011;61000;48.120;11.548;2022-08-02T03:25:15;2.83;;;2.17;;
72864;SDS011;61000;48.120;11.548;2022-08-02T03:27:48;2.42;;;2.10;;
72864;SDS011;61000;48.120;11.548;2022-08-02T03:30:16;2.38;;;1.98;;
72864;SDS011;61000;48.120;11.548;2022-08-02T03:32:43;3.58;;;2.22;;
72864;SDS011;61000;48.120;11.548;2022-08-02T03:35:13;3.10;;;2.80;;
72864;SDS011;61000;48.120;11.548;2022-08-02T03:37:43;2.63;;;2.10;;
72864;SDS011;61000;48.120;11.548;2022-08-02T03:40:11;3.08;;;2.30;;
72864;SDS011;61000;48.120;11.548;2022-08-02T03:42:39;2.47;;;2.28;;
72864;SDS011;61000;48.120;11.548;2022-08-02T03:45:07;2.85;;;2.33;;
72864;SDS011;61000;48.120;11.548;2022-08-02T03:47:35;2.40;;;2.20;;
72864;SDS011;61000;48.120;11.548;2022-08-02T03:50:04;3.20;;;2.58;;
72864;SDS011;61000;48.120;11.548;2022-08-02T03:52:32;2.38;;;2.17;;
72864;SDS011;61000;48.120;11.548;2022-08-02T03:55:01;3.40;;;2.40;;
72864;SDS011;61000;48.120;11.548;2022-08-02T03:57:28;2.90;;;2.42;;
72864;SDS011;61000;48.120;11.548;2022-08-02T03:59:55;3.08;;;2.55;;
72864;SDS011;61000;48.120;11.548;2022-08-02T04:02:22;2.80;;;2.33;;
72864;SDS011;61000;48.120;11.548;2022-08-02T04:04:49;4.75;;;2.63;;
72864;SDS011;61000;48.120;11.548;2022-08-02T04:07:16;2.55;;;2.30;;
72864;SDS011;61000;48.120;11.548;2022-08-02T04:09:42;3.05;;;2.45;;
72864;SDS011;61000;48.120;11.548;2022-08-02T04:12:11;3.00;;;2.70;;
72864;SDS011;61000;48.120;11.548;2022-08-02T04:14:37;3.30;;;2.65;;
72864;SDS011;61000;48.120;11.548;2022-08-02T04:17:05;2.97;;;2.67;;
72864;SDS011;61000;48.120;11.548;2022-08-02T04:19:36;3.10;;;2.78;;
72864;SDS011;61000;48.120;11.548;2022-08-02T04:22:06;3.50;;;2.72;;
72864;SDS011;61000;48.120;11.548;2022-08-02T04:24:40;4.15;;;3.03;;
72864;SDS011;61000;48.120;11.548;2022-08-02T04:27:12;2.90;;;2.60;;
72864;SDS011;61000;48.120;11.548;2022-08-02T04:29:41;2.97;;;2.65;;
72864;SDS011;61000;48.120;11.548;2022-08-02T04:32:08;2.97;;;2.78;;
72864;SDS011;61000;48.120;11.548;2022-08-02T04:34:35;3.45;;;2.58;;
72864;SDS011;61000;48.120;11.548;2022-08-02T04:37:02;2.83;;;2.38;;
72864;SDS011;61000;48.120;11.548;2022-08-02T04:39:29;4.50;;;2.92;;
72864;SDS011;61000;48.120;11.548;2022-08-02T04:41:56;3.13;;;2.67;;
72864;SDS011;61000;48.120;11.548;2022-08-02T04:44:24;3.95;;;2.85;;
72864;SDS011;61000;48.120;11.548;2022-08-02T04:46:52;3.28;;;2.88;;
72864;SDS011;61000;48.120;11.548;2022-08-02T04:49:20;5.50;;;3.15;;
72864;SDS011;61000;48.120;11.548;2022-08-02T04:51:46;3.53;;;2.88;;
72864;SDS011;61000;48.120;11.548;2022-08-02T04:54:13;3.03;;;2.67;;
72864;SDS011;61000;48.120;11.548;2022-08-02T04:56:40;3.83;;;2.75;;
72864;SDS011;61000;48.120;11.548;2022-08-02T04:59:08;3.10;;;2.80;;
72864;SDS011;61000;48.120;11.548;2022-08-02T05:01:37;3.08;;;2.78;;
72864;SDS011;61000;48.120;11.548;2022-08-02T05:04:06;3.95;;;2.88;;
72864;SDS011;61000;48.120;11.548;2022-08-02T05:06:33;5.63;;;2.70;;
72864;SDS011;61000;48.120;11.548;2022-08-02T05:09:00;3.17;;;2.85;;
72864;SDS011;61000;48.120;11.548;2022-08-02T05:11:27;3.50;;;3.05;;
72864;SDS011;61000;48.120;11.548;2022-08-02T05:13:55;4.15;;;3.30;;
72864;SDS011;61000;48.120;11.548;2022-08-02T05:16:22;4.90;;;3.00;;
72864;SDS011;61000;48.120;11.548;2022-08-02T05:18:51;4.05;;;3.33;;
72864;SDS011;61000;48.120;11.548;2022-08-02T05:21:18;5.18;;;3.58;;
72864;SDS011;61000;48.120;11.548;2022-08-02T05:23:45;12.60;;;4.05;;
72864;SDS011;61000;48.120;11.548;2022-08-02T05:26:12;9.48;;;3.20;;
72864;SDS011;61000;48.120;11.548;2022-08-02T05:28:39;6.40;;;3.00;;
72864;SDS011;61000;48.120;11.548;2022-08-02T05:31:06;6.10;;;3.00;;
72864;SDS011;61000;48.120;11.548;2022-08-02T05:33:32;4.10;;;3.00;;
72864;SDS011;61000;48.120;11.548;2022-08-02T05:36:01;4.78;;;2.53;;
72864;SDS011;61000;48.120;11.548;2022-08-02T05:38:28;3.42;;;2.85;;
72864;SDS011;61000;48.120;11.548;2022-08-02T05:40:56;5.70;;;2.60;;
72864;SDS011;61000;48.120;11.548;2022-08-02T05:43:23;5.13;;;2.55;;
72864;SDS011;61000;48.120;11.548;2022-08-02T05:45:50;4.38;;;2.70;;
72864;SDS011;61000;48.120;11.548;2022-08-02T05:48:20;2.60;;;2.40;;
72864;SDS011;61000;48.120;11.548;2022-08-02T05:50:48;3.28;;;2.53;;
72864;SDS011;61000;48.120;11.548;2022-08-02T05:53:26;5.47;;;2.50;;
72864;SDS011;61000;48.120;11.548;2022-08-02T05:56:02;4.25;;;2.70;;
72864;SDS011;61000;48.120;11.548;2022-08-02T05:58:39;5.00;;;2.58;;
72864;SDS011;61000;48.120;11.548;2022-08-02T06:01:15;3.47;;;2.22;;
72864;SDS011;61000;48.120;11.548;2022-08-02T06:03:49;4.57;;;2.45;;
72864;SDS011;61000;48.120;11.548;2022-08-02T06:06:18;2.10;;;2.00;;
72864;SDS011;61000;48.120;11.548;2022-08-02T06:08:50;1.95;;;1.73;;
72864;SDS011;61000;48.120;11.548;2022-08-02T06:11:23;1.88;;;1.60;;
72864;SDS011;61000;48.120;11.548;2022-08-02T06:13:58;1.55;;;1.45;;
72864;SDS011;61000;48.120;11.548;2022-08-02T06:16:26;3.30;;;2.00;;
72864;SDS011;61000;48.120;11.548;2022-08-02T06:18:53;3.38;;;1.70;;
72864;SDS011;61000;48.120;11.548;2022-08-02T06:21:21;2.75;;;1.90;;
72864;SDS011;61000;48.120;11.548;2022-08-02T06:23:50;2.58;;;2.08;;
72864;SDS011;61000;48.120;11.548;2022-08-02T06:26:17;2.10;;;1.77;;
72864;SDS011;61000;48.120;11.548;2022-08-02T06:28:46;2.00;;;1.63;;
72864;SDS011;61000;48.120;11.548;2022-08-02T06:31:13;1.90;;;1.60;;
72864;SDS011;61000;48.120;11.548;2022-08-02T06:33:40;2.83;;;2.05;;
72864;SDS011;61000;48.120;11.548;2022-08-02T06:36:09;1.77;;;1.67;;
72864;SDS011;61000;48.120;11.548;2022-08-02T06:38:55;2.10;;;1.75;;
72864;SDS011;61000;48.120;11.548;2022-08-02T06:41:31;2.25;;;1.73;;
72864;SDS011;61000;48.120;11.548;2022-08-02T06:44:11;2.33;;;2.08;;
72864;SDS011;61000;48.120;11.548;2022-08-02T06:46:38;2.35;;;2.10;;
72864;SDS011;61000;48.120;11.548;2022-08-02T06:49:06;3.70;;;2.10;;
72864;SDS011;61000;48.120;11.548;2022-08-02T06:51:33;2.67;;;2.00;;
72864;SDS011;61000;48.120;11.548;2022-08-02T06:54:01;3.33;;;1.80;;
72864;SDS011;61000;48.120;11.548;2022-08-02T06:56:28;2.20;;;1.95;;
72864;SDS011;61000;48.120;11.548;2022-08-02T06:58:55;4.20;;;1.88;;
72864;SDS011;61000;48.120;11.548;2022-08-02T07:01:22;3.60;;;1.98;;
72864;SDS011;61000;48.120;11.548;2022-08-02T07:03:49;2.97;;;1.98;;
72864;SDS011;61000;48.120;11.548;2022-08-02T07:06:16;2.17;;;1.67;;
72864;SDS011;61000;48.120;11.548;2022-08-02T07:08:43;3.88;;;1.90;;
72864;SDS011;61000;48.120;11.548;2022-08-02T07:11:11;1.98;;;1.48;;
72864;SDS011;61000;48.120;11.548;2022-08-02T07:13:38;2.13;;;1.80;;
72864;SDS011;61000;48.120;11.548;2022-08-02T07:16:05;3.83;;;1.83;;
72864;SDS011;61000;48.120;11.548;2022-08-02T07:18:33;2.28;;;1.83;;
72864;SDS011;61000;48.120;11.548;2022-08-02T07:21:00;1.85;;;1.67;;
72864;SDS011;61000;48.120;11.548;2022-08-02T07:23:29;1.85;;;1.75;;
72864;SDS011;61000;48.120;11.548;2022-08-02T07:25:56;2.50;;;1.73;;
72864;SDS011;61000;48.120;11.548;2022-08-02T07:28:24;2.40;;;1.90;;
72864;SDS011;61000;48.120;11.548;2022-08-02T07:30:51;2.65;;;1.85;;
72864;SDS011;61000;48.120;11.548;2022-08-02T07:33:18;3.08;;;1.50;;
72864;SDS011;61000;48.120;11.548;2022-08-02T07:35:45;2.00;;;1.80;;
72864;SDS011;61000;48.120;11.548;2022-08-02T07:38:12;5.07;;;1.80;;
72864;SDS011;61000;48.120;11.548;2022-08-02T07:40:39;1.70;;;1.60;;
72864;SDS011;61000;48.120;11.548;2022-08-02T07:43:06;7.53;;;1.88;;
72864;SDS011;61000;48.120;11.548;2022-08-02T07:45:34;2.95;;;2.03;;
72864;SDS011;61000;48.120;11.548;2022-08-02T07:48:01;3.03;;;1.73;;
72864;SDS011;61000;48.120;11.548;2022-08-02T07:50:28;1.98;;;1.80;;
72864;SDS011;61000;48.120;11.548;2022-08-02T07:52:55;1.92;;;1.60;;
72864;SDS011;61000;48.120;11.548;2022-08-02T07:55:22;1.65;;;1.55;;
72864;SDS011;61000;48.120;11.548;2022-08-02T07:57:49;1.85;;;1.55;;
72864;SDS011;61000;48.120;11.548;2022-08-02T08:00:17;2.38;;;1.63;;
72864;SDS011;61000;48.120;11.548;2022-08-02T08:02:47;2.55;;;1.65;;
72864;SDS011;61000;48.120;11.548;2022-08-02T08:05:14;2.00;;;1.60;;
72864;SDS011;61000;48.120;11.548;2022-08-02T08:07:41;1.60;;;1.50;;
72864;SDS011;61000;48.120;11.548;2022-08-02T08:10:08;3.08;;;1.80;;
72864;SDS011;61000;48.120;11.548;2022-08-02T08:12:37;2.50;;;1.35;;
72864;SDS011;61000;48.120;11.548;2022-08-02T08:15:04;1.55;;;1.45;;
72864;SDS011;61000;48.120;11.548;2022-08-02T08:17:32;2.20;;;1.40;;
72864;SDS011;61000;48.120;11.548;2022-08-02T08:20:01;2.33;;;1.23;;
72864;SDS011;61000;48.120;11.548;2022-08-02T08:22:28;1.90;;;1.70;;
72864;SDS011;61000;48.120;11.548;2022-08-02T08:24:55;3.33;;;1.70;;
72864;SDS011;61000;48.120;11.548;2022-08-02T08:27:22;2.42;;;1.50;;
72864;SDS011;61000;48.120;11.548;2022-08-02T08:29:49;1.67;;;1.40;;
72864;SDS011;61000;48.120;11.548;2022-08-02T08:32:16;5.25;;;1.60;;
72864;SDS011;61000;48.120;11.548;2022-08-02T08:34:43;2.55;;;1.55;;
72864;SDS011;61000;48.120;11.548;2022-08-02T08:37:11;2.25;;;1.90;;
72864;SDS011;61000;48.120;11.548;2022-08-02T08:39:38;2.20;;;1.50;;
72864;SDS011;61000;48.120;11.548;2022-08-02T08:42:06;5.15;;;1.60;;
72864;SDS011;61000;48.120;11.548;2022-08-02T08:44:33;1.52;;;1.23;;
72864;SDS011;61000;48.120;11.548;2022-08-02T08:47:02;2.25;;;1.40;;
72864;SDS011;61000;48.120;11.548;2022-08-02T08:49:30;1.50;;;1.40;;
72864;SDS011;61000;48.120;11.548;2022-08-02T08:52:03;2.75;;;1.25;;
72864;SDS011;61000;48.120;11.548;2022-08-02T08:54:32;2.25;;;1.55;;
72864;SDS011;61000;48.120;11.548;2022-08-02T08:57:03;2.13;;;1.60;;
72864;SDS011;61000;48.120;11.548;2022-08-02T08:59:30;1.20;;;1.10;;
72864;SDS011;61000;48.120;11.548;2022-08-02T09:01:57;1.33;;;1.30;;
72864;SDS011;61000;48.120;11.548;2022-08-02T09:04:25;1.65;;;1.55;;
72864;SDS011;61000;48.120;11.548;2022-08-02T09:06:52;1.48;;;1.20;;
72864;SDS011;61000;48.120;11.548;2022-08-02T09:09:19;1.60;;;1.50;;
72864;SDS011;61000;48.120;11.548;2022-08-02T09:11:50;1.98;;;1.35;;
72864;SDS011;61000;48.120;11.548;2022-08-02T09:14:27;1.90;;;1.40;;
72864;SDS011;61000;48.120;11.548;2022-08-02T09:17:05;2.47;;;1.25;;
72864;SDS011;61000;48.120;11.548;2022-08-02T09:19:33;2.70;;;1.30;;
72864;SDS011;61000;48.120;11.548;2022-08-02T09:22:01;1.67;;;1.10;;
72864;SDS011;61000;48.120;11.548;2022-08-02T09:24:39;1.35;;;1.15;;
72864;SDS011;61000;48.120;11.548;2022-08-02T09:27:13;1.13;;;0.88;;
72864;SDS011;61000;48.120;11.548;2022-08-02T09:29:44;1.45;;;1.08;;
72864;SDS011;61000;48.120;11.548;2022-08-02T09:32:11;2.83;;;1.02;;
72864;SDS011;61000;48.120;11.548;2022-08-02T09:34:44;2.65;;;1.10;;
72864;SDS011;61000;48.120;11.548;2022-08-02T09:37:23;0.70;;;0.70;;
72864;SDS011;61000;48.120;11.548;2022-08-02T09:39:51;2.65;;;1.00;;
72864;SDS011;61000;48.120;11.548;2022-08-02T09:42:19;0.80;;;0.80;;
72864;SDS011;61000;48.120;11.548;2022-08-02T09:44:53;1.38;;;1.20;;
72864;SDS011;61000;48.120;11.548;2022-08-02T09:47:21;1.65;;;1.00;;
72864;SDS011;61000;48.120;11.548;2022-08-02T09:49:49;1.52;;;0.70;;
72864;SDS011;61000;48.120;11.548;2022-08-02T09:52:20;1.38;;;0.95;;
72864;SDS011;61000;48.120;11.548;2022-08-02T09:54:48;1.27;;;0.90;;
72864;SDS011;61000;48.120;11.548;2022-08-02T09:57:24;1.58;;;0.77;;
72864;SDS011;61000;48.120;11.548;2022-08-02T09:59:55;0.73;;;0.73;;
72864;SDS011;61000;48.120;11.548;2022-08-02T10:02:23;0.68;;;0.68;;
72864;SDS011;61000;48.120;11.548;2022-08-02T10:04:56;1.02;;;0.88;;
72864;SDS011;61000;48.120;11.548;2022-08-02T10:07:23;0.77;;;0.70;;
72864;SDS011;61000;48.120;11.548;2022-08-02T10:09:50;1.27;;;0.95;;
72864;SDS011;61000;48.120;11.548;2022-08-02T10:12:17;1.25;;;1.00;;
72864;SDS011;61000;48.120;11.548;2022-08-02T10:14:47;0.70;;;0.70;;
72864;SDS011;61000;48.120;11.548;2022-08-02T10:17:16;2.53;;;0.75;;
72864;SDS011;61000;48.120;11.548;2022-08-02T10:19:43;0.75;;;0.75;;
72864;SDS011;61000;48.120;11.548;2022-08-02T10:22:13;2.42;;;2.20;;
72864;SDS011;61000;48.120;11.548;2022-08-02T10:24:41;1.70;;;0.60;;
72864;SDS011;61000;48.120;11.548;2022-08-02T10:27:11;1.00;;;1.00;;
72864;SDS011;61000;48.120;11.548;2022-08-02T10:29:41;1.48;;;0.80;;
72864;SDS011;61000;48.120;11.548;2022-08-02T10:32:14;1.45;;;0.73;;
72864;SDS011;61000;48.120;11.548;2022-08-02T10:34:54;0.70;;;0.65;;
72864;SDS011;61000;48.120;11.548;2022-08-02T10:37:26;0.80;;;0.57;;
72864;SDS011;61000;48.120;11.548;2022-08-02T10:39:56;0.77;;;0.70;;
72864;SDS011;61000;48.120;11.548;2022-08-02T10:45:11;0.82;;;0.60;;
72864;SDS011;61000;48.120;11.548;2022-08-02T10:47:48;1.00;;;0.80;;
72864;SDS011;61000;48.120;11.548;2022-08-02T10:50:50;1.27;;;0.98;;
72864;SDS011;61000;48.120;11.548;2022-08-02T10:53:18;1.98;;;0.85;;
72864;SDS011;61000;48.120;11.548;2022-08-02T10:55:48;0.88;;;0.88;;
72864;SDS011;61000;48.120;11.548;2022-08-02T10:58:15;1.33;;;1.20;;
72864;SDS011;61000;48.120;11.548;2022-08-02T11:00:43;1.60;;;1.20;;
72864;SDS011;61000;48.120;11.548;2022-08-02T11:06:05;1.77;;;1.00;;
72864;SDS011;61000;48.120;11.548;2022-08-02T11:08:32;1.30;;;1.20;;
72864;SDS011;61000;48.120;11.548;2022-08-02T11:10:59;1.38;;;1.20;;
72864;SDS011;61000;48.120;11.548;2022-08-02T11:19:28;1.88;;;1.75;;
72864;SDS011;61000;48.120;11.548;2022-08-02T11:21:58;1.05;;;1.02;;
72864;SDS011;61000;48.120;11.548;2022-08-02T11:24:27;2.35;;;1.17;;
72864;SDS011;61000;48.120;11.548;2022-08-02T11:26:55;2.08;;;1.20;;
72864;SDS011;61000;48.120;11.548;2022-08-02T11:29:36;1.20;;;1.10;;
72864;SDS011;61000;48.120;11.548;2022-08-02T11:32:05;1.20;;;1.10;;
72864;SDS011;61000;48.120;11.548;2022-08-02T11:34:34;1.00;;;1.00;;
72864;SDS011;61000;48.120;11.548;2022-08-02T11:37:01;1.52;;;1.30;;
72864;SDS011;61000;48.120;11.548;2022-08-02T11:39:28;1.30;;;1.20;;
72864;SDS011;61000;48.120;11.548;2022-08-02T11:41:56;2.65;;;1.20;;
72864;SDS011;61000;48.120;11.548;2022-08-02T11:44:25;1.90;;;1.20;;
72864;SDS011;61000;48.120;11.548;2022-08-02T11:46:53;1.77;;;1.00;;
72864;SDS011;61000;48.120;11.548;2022-08-02T11:49:21;1.45;;;1.10;;
72864;SDS011;61000;48.120;11.548;2022-08-02T11:51:57;1.50;;;1.13;;
72864;SDS011;61000;48.120;11.548;2022-08-02T11:54:29;1.45;;;1.15;;
72864;SDS011;61000;48.120;11.548;2022-08-02T11:57:13;1.30;;;1.20;;
72864;SDS011;61000;48.120;11.548;2022-08-02T11:59:42;1.33;;;1.23;;
72864;SDS011;61000;48.120;11.548;2022-08-02T12:02:11;3.95;;;1.25;;
72864;SDS011;61000;48.120;11.548;2022-08-02T12:04:38;1.38;;;1.20;;
72864;SDS011;61000;48.120;11.548;2022-08-02T12:07:07;1.05;;;0.98;;
72864;SDS011;61000;48.120;11.548;2022-08-02T12:09:35;2.75;;;1.30;;
72864;SDS011;61000;48.120;11.548;2022-08-02T12:12:02;1.00;;;1.00;;
72864;SDS011;61000;48.120;11.548;2022-08-02T12:14:30;1.23;;;1.13;;
72864;SDS011;61000;48.120;11.548;2022-08-02T12:16:58;1.75;;;0.80;;
72864;SDS011;61000;48.120;11.548;2022-08-02T12:19:42;1.27;;;0.90;;
72864;SDS011;61000;48.120;11.548;2022-08-02T12:22:17;1.10;;;1.10;;
72864;SDS011;61000;48.120;11.548;2022-08-02T12:24:46;1.33;;;0.98;;
72864;SDS011;61000;48.120;11.548;2022-08-02T12:27:27;0.75;;;0.75;;
72864;SDS011;61000;48.120;11.548;2022-08-02T12:29:59;1.25;;;1.15;;
72864;SDS011;61000;48.120;11.548;2022-08-02T12:32:27;0.95;;;0.95;;
72864;SDS011;61000;48.120;11.548;2022-08-02T12:35:02;2.45;;;1.08;;
72864;SDS011;61000;48.120;11.548;2022-08-02T12:37:32;1.38;;;1.08;;
72864;SDS011;61000;48.120;11.548;2022-08-02T12:42:46;1.20;;;1.10;;
72864;SDS011;61000;48.120;11.548;2022-08-02T12:45:14;1.13;;;1.02;;
72864;SDS011;61000;48.120;11.548;2022-08-02T12:47:44;1.00;;;1.00;;
72864;SDS011;61000;48.120;11.548;2022-08-02T12:50:14;3.67;;;1.13;;
72864;SDS011;61000;48.120;11.548;2022-08-02T12:52:44;1.67;;;1.00;;
72864;SDS011;61000;48.120;11.548;2022-08-02T12:55:15;1.92;;;0.90;;
72864;SDS011;61000;48.120;11.548;2022-08-02T12:57:54;1.55;;;1.13;;
72864;SDS011;61000;48.120;11.548;2022-08-02T13:00:24;2.33;;;1.05;;
72864;SDS011;61000;48.120;11.548;2022-08-02T13:02:54;1.00;;;0.90;;
72864;SDS011;61000;48.120;11.548;2022-08-02T13:05:22;3.65;;;0.80;;
72864;SDS011;61000;48.120;11.548;2022-08-02T13:07:51;0.70;;;0.70;;
72864;SDS011;61000;48.120;11.548;2022-08-02T13:10:18;1.63;;;0.88;;
72864;SDS011;61000;48.120;11.548;2022-08-02T13:12:46;0.70;;;0.70;;
72864;SDS011;61000;48.120;11.548;2022-08-02T13:15:13;0.85;;;0.85;;
72864;SDS011;61000;48.120;11.548;2022-08-02T13:17:40;1.10;;;1.00;;
72864;SDS011;61000;48.120;11.548;2022-08-02T13:20:08;0.80;;;0.80;;
72864;SDS011;61000;48.120;11.548;2022-08-02T13:22:35;2.42;;;0.77;;
72864;SDS011;61000;48.120;11.548;2022-08-02T13:25:04;1.88;;;0.98;;
72864;SDS011;61000;48.120;11.548;2022-08-02T13:27:31;0.70;;;0.70;;
72864;SDS011;61000;48.120;11.548;2022-08-02T13:29:59;0.80;;;0.80;;
72864;SDS011;61000;48.120;11.548;2022-08-02T13:32:27;0.85;;;0.80;;
72864;SDS011;61000;48.120;11.548;2022-08-02T13:34:54;2.50;;;0.80;;
72864;SDS011;61000;48.120;11.548;2022-08-02T13:37:22;1.95;;;1.08;;
72864;SDS011;61000;48.120;11.548;2022-08-02T13:39:49;0.90;;;0.90;;
72864;SDS011;61000;48.120;11.548;2022-08-02T13:42:18;1.55;;;0.70;;
72864;SDS011;61000;48.120;11.548;2022-08-02T13:44:45;1.00;;;0.90;;
72864;SDS011;61000;48.120;11.548;2022-08-02T13:47:12;1.85;;;0.80;;
72864;SDS011;61000;48.120;11.548;2022-08-02T13:49:39;0.82;;;0.80;;
72864;SDS011;61000;48.120;11.548;2022-08-02T13:52:06;3.33;;;0.80;;
72864;SDS011;61000;48.120;11.548;2022-08-02T13:54:33;0.95;;;0.85;;
72864;SDS011;61000;48.120;11.548;2022-08-02T13:57:00;0.95;;;0.70;;
72864;SDS011;61000;48.120;11.548;2022-08-02T13:59:29;3.67;;;1.00;;
72864;SDS011;61000;48.120;11.548;2022-08-02T14:01:57;1.48;;;1.00;;
72864;SDS011;61000;48.120;11.548;2022-08-02T14:04:25;0.80;;;0.80;;
72864;SDS011;61000;48.120;11.548;2022-08-02T14:06:52;2.33;;;0.90;;
72864;SDS011;61000;48.120;11.548;2022-08-02T14:09:19;2.28;;;1.05;;
72864;SDS011;61000;48.120;11.548;2022-08-02T14:11:46;0.80;;;0.80;;
72864;SDS011;61000;48.120;11.548;2022-08-02T14:14:13;0.77;;;0.70;;
72864;SDS011;61000;48.120;11.548;2022-08-02T14:16:42;0.82;;;0.80;;
72864;SDS011;61000;48.120;11.548;2022-08-02T14:19:09;0.80;;;0.77;;
72864;SDS011;61000;48.120;11.548;2022-08-02T14:21:37;0.70;;;0.70;;
72864;SDS011;61000;48.120;11.548;2022-08-02T14:24:04;0.70;;;0.70;;
72864;SDS011;61000;48.120;11.548;2022-08-02T14:26:31;0.95;;;0.95;;
72864;SDS011;61000;48.120;11.548;2022-08-02T14:28:58;1.20;;;0.80;;
72864;SDS011;61000;48.120;11.548;2022-08-02T14:31:25;0.88;;;0.82;;
72864;SDS011;61000;48.120;11.548;2022-08-02T14:33:53;1.50;;;1.20;;
72864;SDS011;61000;48.120;11.548;2022-08-02T14:36:20;0.60;;;0.60;;
72864;SDS011;61000;48.120;11.548;2022-08-02T14:38:47;1.55;;;0.85;;
72864;SDS011;61000;48.120;11.548;2022-08-02T14:41:14;1.23;;;0.80;;
72864;SDS011;61000;48.120;11.548;2022-08-02T14:43:40;1.58;;;0.82;;
72864;SDS011;61000;48.120;11.548;2022-08-02T14:46:25;1.23;;;0.90;;
72864;SDS011;61000;48.120;11.548;2022-08-02T14:48:54;1.50;;;0.90;;
72864;SDS011;61000;48.120;11.548;2022-08-02T14:51:21;2.10;;;1.02;;
72864;SDS011;61000;48.120;11.548;2022-08-02T14:53:48;1.38;;;0.90;;
72864;SDS011;61000;48.120;11.548;2022-08-02T14:56:15;1.10;;;1.00;;
72864;SDS011;61000;48.120;11.548;2022-08-02T14:58:42;0.80;;;0.80;;